createdAt,value
2019-03-20T00:01:09.701Z,8.70
2019-03-20T00:03:38.851Z,10.70
2019-03-20T00:06:08.105Z,9.30
2019-03-20T00:08:37.246Z,9.67
2019-03-20T00:11:06.717Z,8.20
2019-03-20T00:13:35.849Z,6.40
2019-03-20T00:16:05.026Z,5.87
2019-03-20T00:18:34.410Z,8.07
2019-03-20T00:21:03.560Z,6.03
2019-03-20T00:23:32.719Z,4.57
2019-03-20T00:26:01.870Z,4.40
2019-03-20T00:28:31.055Z,4.90
2019-03-20T00:31:00.196Z,5.53
2019-03-20T00:33:29.361Z,11.83
2019-03-20T00:35:58.503Z,6.43
2019-03-20T00:38:27.658Z,6.70
2019-03-20T00:40:57.197Z,4.23
2019-03-20T00:43:26.407Z,4.33
2019-03-20T00:45:55.626Z,4.10
2019-03-20T00:48:25.374Z,5.00
2019-03-20T00:50:54.600Z,5.90
2019-03-20T00:53:23.756Z,13.20
2019-03-20T00:55:52.924Z,15.03
2019-03-20T00:58:22.158Z,12.77
2019-03-20T01:00:51.336Z,10.03
2019-03-20T01:03:20.422Z,9.83
2019-03-20T01:05:49.485Z,10.80
2019-03-20T01:08:18.593Z,10.13
2019-03-20T01:10:47.670Z,8.50
2019-03-20T01:13:16.704Z,8.37
2019-03-20T01:15:45.741Z,7.00
2019-03-20T01:18:14.762Z,7.63
2019-03-20T01:20:44.177Z,5.00
2019-03-20T01:23:13.258Z,5.37
2019-03-20T01:25:42.363Z,3.70
2019-03-20T01:28:11.836Z,4.23
2019-03-20T01:30:40.960Z,4.50
2019-03-20T01:33:11.112Z,4.10
2019-03-20T01:35:40.357Z,3.83
2019-03-20T01:38:09.424Z,3.80
2019-03-20T01:40:40.342Z,4.20
2019-03-20T01:43:09.634Z,4.13
2019-03-20T01:45:38.730Z,4.00
2019-03-20T01:48:07.833Z,3.63
2019-03-20T01:50:36.929Z,4.03
2019-03-20T01:53:06.028Z,6.70
2019-03-20T01:55:35.109Z,6.00
2019-03-20T01:58:04.275Z,5.43
2019-03-20T02:00:33.607Z,11.37
2019-03-20T02:03:02.703Z,13.07
2019-03-20T02:05:36.264Z,8.50
2019-03-20T02:08:02.671Z,9.50
2019-03-20T02:10:31.832Z,10.00
2019-03-20T02:13:00.964Z,6.73
2019-03-20T02:15:38.789Z,5.87
2019-03-20T02:18:00.761Z,4.67
2019-03-20T02:20:29.841Z,4.03
2019-03-20T02:22:58.965Z,5.60
2019-03-20T02:25:28.468Z,3.77
2019-03-20T02:27:57.545Z,7.07
2019-03-20T02:30:26.666Z,6.60
2019-03-20T02:32:55.699Z,8.93
2019-03-20T02:35:24.754Z,9.63
2019-03-20T02:37:53.824Z,14.00
2019-03-20T02:40:22.945Z,9.83
2019-03-20T02:42:51.964Z,11.30
2019-03-20T02:45:21.025Z,10.47
2019-03-20T02:47:50.112Z,10.70
2019-03-20T02:50:19.226Z,10.40
2019-03-20T02:52:48.306Z,9.10
2019-03-20T02:55:17.420Z,8.73
2019-03-20T02:57:46.528Z,9.00
2019-03-20T03:00:15.687Z,9.40
2019-03-20T03:02:44.881Z,10.40
2019-03-20T03:05:14.391Z,9.50
2019-03-20T03:07:43.519Z,9.00
2019-03-20T03:10:13.075Z,8.93
2019-03-20T03:12:42.205Z,8.40
2019-03-20T03:15:11.417Z,8.17
2019-03-20T03:17:40.552Z,8.40
2019-03-20T03:20:09.771Z,7.63
2019-03-20T03:22:38.845Z,7.33
2019-03-20T03:25:08.083Z,7.43
2019-03-20T03:27:37.200Z,6.67
2019-03-20T03:30:07.157Z,7.43
2019-03-20T03:32:36.259Z,5.90
2019-03-20T03:35:05.717Z,4.67
2019-03-20T03:37:35.089Z,4.57
2019-03-20T03:40:04.863Z,4.13
2019-03-20T03:42:34.366Z,3.30
2019-03-20T03:45:03.463Z,3.47
2019-03-20T03:47:32.554Z,3.10
2019-03-20T03:50:01.607Z,3.43
2019-03-20T03:52:30.718Z,3.57
2019-03-20T03:54:59.748Z,3.53
2019-03-20T03:57:28.882Z,3.90
2019-03-20T03:59:58.011Z,3.70
2019-03-20T04:02:27.107Z,4.00
2019-03-20T04:04:56.187Z,3.40
2019-03-20T04:07:25.299Z,3.57
2019-03-20T04:09:54.388Z,4.90
2019-03-20T04:12:23.877Z,7.30
2019-03-20T04:14:52.977Z,8.07
2019-03-20T04:17:28.888Z,7.47
2019-03-20T04:19:57.948Z,6.90
2019-03-20T04:22:26.996Z,6.13
2019-03-20T04:24:56.445Z,6.87
2019-03-20T04:27:25.555Z,5.67
2019-03-20T04:29:54.615Z,6.30
2019-03-20T04:32:23.757Z,4.83
2019-03-20T04:34:52.833Z,4.80
2019-03-20T04:37:21.889Z,5.20
2019-03-20T04:39:50.904Z,5.60
2019-03-20T04:42:20.022Z,4.70
2019-03-20T04:44:49.125Z,5.43
2019-03-20T04:47:18.122Z,4.80
2019-03-20T04:49:47.240Z,5.10
2019-03-20T04:52:16.373Z,5.33
2019-03-20T04:54:45.478Z,4.90
2019-03-20T04:57:14.598Z,4.47
2019-03-20T04:59:43.662Z,4.10
2019-03-20T05:02:12.794Z,3.50
2019-03-20T05:04:41.902Z,4.10
2019-03-20T05:07:10.888Z,3.47
2019-03-20T05:09:39.984Z,3.90
2019-03-20T05:12:09.050Z,4.00
2019-03-20T05:14:38.479Z,4.00
2019-03-20T05:17:07.788Z,4.43
2019-03-20T05:19:36.961Z,4.27
2019-03-20T05:22:06.137Z,4.87
2019-03-20T05:24:35.213Z,3.93
2019-03-20T05:27:04.430Z,4.20
2019-03-20T05:29:33.508Z,4.57
2019-03-20T05:32:02.559Z,4.17
2019-03-20T05:34:31.671Z,4.10
2019-03-20T05:37:09.897Z,4.53
2019-03-20T05:39:31.549Z,4.43
2019-03-20T05:42:00.667Z,4.23
2019-03-20T05:44:29.778Z,4.70
2019-03-20T05:46:58.987Z,4.70
2019-03-20T05:49:39.080Z,4.70
2019-03-20T05:52:21.199Z,6.07
2019-03-20T05:55:03.400Z,6.10
2019-03-20T05:57:42.223Z,6.60
2019-03-20T06:00:25.230Z,5.90
2019-03-20T06:02:54.741Z,5.50
2019-03-20T06:05:23.785Z,6.20
2019-03-20T06:07:52.787Z,6.73
2019-03-20T06:10:21.927Z,10.87
2019-03-20T06:12:51.074Z,14.00
2019-03-20T06:15:20.424Z,17.27
2019-03-20T06:17:49.647Z,12.90
2019-03-20T06:20:18.727Z,15.07
2019-03-20T06:22:47.858Z,10.97
2019-03-20T06:25:16.976Z,7.37
2019-03-20T06:27:46.074Z,7.07
2019-03-20T06:30:15.894Z,6.47
2019-03-20T06:32:44.999Z,7.80
2019-03-20T06:35:14.205Z,7.10
2019-03-20T06:37:43.295Z,6.60
2019-03-20T06:40:12.716Z,11.23
2019-03-20T06:42:41.896Z,10.30
2019-03-20T06:45:11.786Z,11.83
2019-03-20T06:47:40.924Z,11.37
2019-03-20T06:50:12.668Z,12.60
2019-03-20T06:52:41.892Z,12.53
2019-03-20T06:55:11.023Z,12.00
2019-03-20T06:57:40.159Z,11.30
2019-03-20T07:00:43.717Z,10.47
2019-03-20T07:03:20.117Z,11.33
2019-03-20T07:06:13.295Z,11.87
2019-03-20T07:08:59.803Z,11.17
2019-03-20T07:11:29.028Z,10.70
2019-03-20T07:13:57.971Z,13.23
2019-03-20T07:16:27.243Z,15.57
2019-03-20T07:18:57.370Z,16.13
2019-03-20T07:21:27.267Z,15.60
2019-03-20T07:23:56.930Z,14.30
2019-03-20T07:26:28.559Z,14.33
2019-03-20T07:28:56.813Z,14.23
2019-03-20T07:31:25.930Z,15.05
2019-03-20T07:33:55.680Z,13.00
2019-03-20T07:36:25.200Z,11.97
2019-03-20T07:38:54.341Z,10.77
2019-03-20T07:41:23.370Z,11.50
2019-03-20T07:43:52.493Z,10.33
2019-03-20T07:46:21.658Z,8.93
2019-03-20T07:48:50.904Z,9.33
2019-03-20T07:51:19.959Z,10.10
2019-03-20T07:53:49.036Z,6.30
2019-03-20T07:56:18.153Z,6.67
2019-03-20T07:58:47.237Z,5.00
2019-03-20T08:01:16.347Z,5.80
2019-03-20T08:03:45.467Z,4.90
2019-03-20T08:06:14.665Z,5.20
2019-03-20T08:08:43.786Z,4.63
2019-03-20T08:11:32.010Z,4.57
2019-03-20T08:14:01.285Z,4.20
2019-03-20T08:16:30.436Z,4.30
2019-03-20T08:18:59.892Z,4.37
2019-03-20T08:21:29.027Z,5.07
2019-03-20T08:23:58.224Z,4.63
2019-03-20T08:26:27.432Z,4.90
2019-03-20T08:28:56.653Z,4.63
2019-03-20T08:31:25.804Z,4.43
2019-03-20T08:33:54.957Z,4.73
2019-03-20T08:36:24.144Z,5.80
2019-03-20T08:38:53.240Z,6.17
2019-03-20T08:41:22.419Z,5.10
2019-03-20T08:43:51.662Z,6.27
2019-03-20T08:46:20.845Z,5.50
2019-03-20T08:48:49.946Z,5.80
2019-03-20T08:51:19.177Z,5.20
2019-03-20T08:53:48.420Z,6.13
2019-03-20T08:56:17.614Z,6.30
2019-03-20T08:58:47.632Z,6.07
2019-03-20T09:01:27.845Z,6.47
2019-03-20T09:03:47.609Z,7.00
2019-03-20T09:06:16.808Z,8.10
2019-03-20T09:08:45.893Z,7.90
2019-03-20T09:11:15.080Z,6.73
2019-03-20T09:13:44.208Z,7.17
2019-03-20T09:16:13.374Z,7.37
2019-03-20T09:18:42.856Z,8.10
2019-03-20T09:21:12.026Z,8.67
2019-03-20T09:23:41.204Z,9.07
2019-03-20T09:26:10.421Z,9.03
2019-03-20T09:28:39.610Z,9.70
2019-03-20T09:31:08.741Z,9.90
2019-03-20T09:33:38.111Z,10.57
2019-03-20T09:36:07.254Z,11.27
2019-03-20T09:38:43.465Z,10.30
2019-03-20T09:41:07.236Z,10.13
2019-03-20T09:43:36.702Z,10.60
2019-03-20T09:46:05.972Z,10.27
2019-03-20T09:48:35.105Z,10.27
2019-03-20T09:51:04.221Z,9.50
2019-03-20T09:53:33.354Z,9.80
2019-03-20T09:56:02.836Z,10.37
2019-03-20T09:58:31.953Z,10.13
2019-03-20T10:01:01.185Z,10.37
2019-03-20T10:03:30.348Z,9.73
2019-03-20T10:05:59.472Z,9.50
2019-03-20T10:08:28.957Z,9.70
2019-03-20T10:10:58.032Z,10.90
2019-03-20T10:13:27.072Z,11.03
2019-03-20T10:15:56.197Z,10.00
2019-03-20T10:18:25.163Z,10.20
2019-03-20T10:20:54.264Z,10.13
2019-03-20T10:23:23.291Z,9.93
2019-03-20T10:25:52.427Z,10.60
2019-03-20T10:28:21.553Z,11.57
2019-03-20T10:30:50.970Z,10.17
2019-03-20T10:33:20.184Z,9.77
2019-03-20T10:35:50.584Z,9.63
2019-03-20T10:38:20.033Z,10.30
2019-03-20T10:40:49.230Z,10.20
2019-03-20T10:43:18.410Z,10.60
2019-03-20T10:45:47.822Z,11.37
2019-03-20T10:48:16.956Z,10.70
2019-03-20T10:50:46.141Z,9.50
2019-03-20T10:53:15.302Z,10.47
2019-03-20T10:55:44.495Z,10.67
2019-03-20T10:58:13.719Z,10.60
2019-03-20T11:00:42.898Z,9.57
2019-03-20T11:03:12.089Z,9.77
2019-03-20T11:05:41.292Z,10.40
2019-03-20T11:08:12.876Z,8.97
2019-03-20T11:10:41.186Z,9.30
2019-03-20T11:13:13.513Z,9.17
2019-03-20T11:15:42.620Z,8.70
2019-03-20T11:18:11.771Z,8.20
2019-03-20T11:20:42.192Z,7.27
2019-03-20T11:23:18.185Z,8.57
2019-03-20T11:25:49.971Z,6.63
2019-03-20T11:28:21.309Z,6.90
2019-03-20T11:31:23.998Z,6.60
2019-03-20T11:34:26.493Z,6.40
2019-03-20T11:41:01.056Z,6.20
2019-03-20T11:43:34.636Z,6.43
2019-03-20T11:46:06.606Z,6.37
2019-03-20T11:48:35.717Z,7.20
2019-03-20T11:51:04.908Z,6.23
2019-03-20T11:53:34.212Z,6.00
2019-03-20T11:56:03.402Z,6.00
2019-03-20T11:58:32.537Z,6.40
2019-03-20T12:01:04.960Z,6.40
2019-03-20T12:03:34.361Z,6.07
2019-03-20T12:06:03.498Z,5.77
2019-03-20T12:08:32.583Z,6.03
2019-03-20T12:11:01.735Z,6.13
2019-03-20T12:13:30.974Z,5.80
2019-03-20T12:16:00.126Z,5.40
2019-03-20T12:18:29.330Z,5.70
2019-03-20T12:20:58.517Z,5.20
2019-03-20T12:23:28.139Z,5.90
2019-03-20T12:26:10.386Z,5.43
2019-03-20T12:28:39.621Z,5.57
2019-03-20T12:31:15.552Z,5.20
2019-03-20T12:33:50.270Z,5.27
2019-03-20T12:36:27.311Z,5.13
2019-03-20T12:39:00.879Z,5.13
2019-03-20T12:41:32.697Z,5.13
2019-03-20T12:44:04.878Z,5.00
2019-03-20T12:46:41.727Z,5.27
2019-03-20T12:49:11.080Z,6.27
2019-03-20T12:51:42.165Z,5.50
2019-03-20T12:54:14.353Z,5.40
2019-03-20T12:56:54.495Z,6.00
2019-03-20T13:02:20.005Z,5.37
2019-03-20T13:04:51.306Z,5.47
2019-03-20T13:07:23.753Z,6.20
2019-03-20T13:09:59.568Z,5.60
2019-03-20T13:12:25.903Z,5.63
2019-03-20T13:15:33.432Z,5.43
2019-03-20T13:18:08.406Z,5.43
2019-03-20T13:20:37.579Z,5.47
2019-03-20T13:23:11.306Z,5.07
2019-03-20T13:25:42.318Z,5.53
2019-03-20T13:28:13.980Z,5.57
2019-03-20T13:30:49.766Z,5.13
2019-03-20T13:33:25.815Z,5.57
2019-03-20T13:35:50.580Z,5.37
2019-03-20T13:38:19.609Z,4.97
2019-03-20T13:40:48.877Z,6.07
2019-03-20T13:43:18.023Z,6.10
2019-03-20T13:45:47.298Z,6.20
2019-03-20T13:48:16.400Z,5.60
2019-03-20T13:50:48.213Z,5.70
2019-03-20T13:53:17.369Z,5.37
2019-03-20T13:55:46.683Z,6.10
2019-03-20T13:58:19.122Z,5.83
2019-03-20T14:00:50.774Z,6.73
2019-03-20T14:03:19.886Z,6.13
2019-03-20T14:05:49.354Z,6.30
2019-03-20T14:08:20.024Z,5.47
2019-03-20T14:10:50.852Z,5.57
2019-03-20T14:13:21.196Z,5.97
2019-03-20T14:15:50.364Z,7.27
2019-03-20T14:18:19.526Z,10.90
2019-03-20T14:20:48.798Z,8.55
2019-03-20T14:23:18.168Z,7.60
2019-03-20T14:25:47.463Z,6.43
2019-03-20T14:29:11.990Z,6.23
2019-03-20T14:31:41.211Z,5.93
2019-03-20T14:34:10.360Z,7.03
2019-03-20T14:36:39.499Z,6.50
2019-03-20T14:39:09.123Z,7.00
2019-03-20T14:41:38.274Z,7.20
2019-03-20T14:44:07.501Z,6.27
2019-03-20T14:46:36.638Z,6.67
2019-03-20T14:49:05.830Z,5.90
2019-03-20T14:51:34.941Z,6.57
2019-03-20T14:54:04.612Z,6.20
2019-03-20T14:56:33.738Z,7.33
2019-03-20T14:59:02.917Z,6.90
2019-03-20T15:01:32.026Z,6.70
2019-03-20T15:04:03.924Z,6.30
2019-03-20T15:06:33.073Z,6.63
2019-03-20T15:09:02.177Z,6.50
2019-03-20T15:11:34.128Z,7.17
2019-03-20T15:14:03.383Z,6.30
2019-03-20T15:16:42.038Z,6.10
2019-03-20T15:19:11.187Z,6.43
2019-03-20T15:21:40.396Z,7.73
2019-03-20T15:24:09.537Z,6.90
2019-03-20T15:26:38.948Z,8.40
2019-03-20T15:29:08.466Z,6.00
2019-03-20T15:31:40.827Z,6.00
2019-03-20T15:34:11.029Z,5.33
2019-03-20T15:36:40.207Z,5.33
2019-03-20T15:39:09.343Z,5.43
2019-03-20T15:41:38.539Z,5.63
2019-03-20T15:44:07.742Z,5.93
2019-03-20T15:46:36.987Z,5.70
2019-03-20T15:49:06.412Z,5.40
2019-03-20T15:51:36.056Z,5.73
2019-03-20T15:54:05.356Z,5.97
2019-03-20T15:56:34.856Z,5.57
2019-03-20T15:59:03.959Z,5.40
2019-03-20T16:01:33.111Z,5.20
2019-03-20T16:04:02.325Z,5.07
2019-03-20T16:06:31.547Z,4.40
2019-03-20T16:09:00.630Z,4.80
2019-03-20T16:11:29.837Z,4.70
2019-03-20T16:13:58.981Z,5.13
2019-03-20T16:16:31.250Z,4.50
2019-03-20T16:19:03.483Z,5.20
2019-03-20T16:21:33.024Z,5.73
2019-03-20T16:24:02.148Z,5.73
2019-03-20T16:26:31.346Z,4.70
2019-03-20T16:29:00.546Z,4.23
2019-03-20T16:31:29.951Z,4.47
2019-03-20T16:33:59.115Z,3.87
2019-03-20T16:36:28.274Z,3.87
2019-03-20T16:38:57.628Z,3.80
2019-03-20T16:41:26.819Z,3.87
2019-03-20T16:43:55.955Z,4.00
2019-03-20T16:46:26.209Z,3.90
2019-03-20T16:48:55.370Z,3.50
2019-03-20T16:51:24.524Z,4.10
2019-03-20T16:53:53.589Z,4.03
2019-03-20T16:56:22.914Z,4.20
2019-03-20T16:58:52.011Z,3.70
2019-03-20T17:01:21.122Z,3.83
2019-03-20T17:03:50.316Z,4.07
2019-03-20T17:06:19.523Z,4.00
2019-03-20T17:08:48.747Z,3.50
2019-03-20T17:11:27.413Z,3.80
2019-03-20T17:13:48.931Z,3.90
2019-03-20T17:16:20.230Z,3.90
2019-03-20T17:21:49.346Z,5.63
2019-03-20T17:24:20.620Z,4.53
2019-03-20T17:26:50.855Z,5.10
2019-03-20T17:29:21.281Z,5.20
2019-03-20T17:31:50.319Z,8.67
2019-03-20T17:34:19.533Z,6.97
2019-03-20T17:36:50.831Z,4.87
2019-03-20T17:39:20.143Z,6.73
2019-03-20T17:41:49.322Z,6.20
2019-03-20T17:44:26.797Z,7.03
2019-03-20T17:46:55.948Z,5.17
2019-03-20T17:49:25.169Z,5.73
2019-03-20T17:51:57.137Z,7.37
2019-03-20T17:54:29.013Z,7.57
2019-03-20T17:57:00.542Z,9.57
2019-03-20T17:59:30.124Z,8.00
2019-03-20T18:01:59.219Z,17.83
2019-03-20T18:04:30.413Z,10.03
2019-03-20T18:07:02.892Z,13.67
2019-03-20T18:09:34.044Z,5.50
2019-03-20T18:12:05.215Z,13.13
2019-03-20T18:14:34.524Z,5.40
2019-03-20T18:17:03.644Z,5.67
2019-03-20T18:19:51.996Z,6.00
2019-03-20T18:22:21.085Z,5.50
2019-03-20T18:24:50.131Z,7.13
2019-03-20T18:27:19.244Z,10.23
2019-03-20T18:29:48.289Z,7.87
2019-03-20T18:32:17.436Z,5.50
2019-03-20T18:34:46.522Z,4.90
2019-03-20T18:37:15.636Z,7.30
2019-03-20T18:39:45.199Z,6.97
2019-03-20T18:42:14.349Z,19.10
2019-03-20T18:44:43.604Z,17.07
2019-03-20T18:47:12.698Z,8.10
2019-03-20T18:49:41.891Z,11.27
2019-03-20T18:52:10.967Z,12.87
2019-03-20T18:54:40.426Z,6.97
2019-03-20T18:57:09.597Z,11.23
2019-03-20T18:59:38.753Z,4.80
2019-03-20T19:02:07.897Z,5.60
2019-03-20T19:04:37.080Z,4.70
2019-03-20T19:07:06.306Z,4.50
2019-03-20T19:09:35.505Z,7.30
2019-03-20T19:12:08.761Z,10.13
2019-03-20T19:14:35.558Z,9.13
2019-03-20T19:17:04.643Z,8.40
2019-03-20T19:19:33.746Z,5.83
2019-03-20T19:22:03.011Z,5.20
2019-03-20T19:24:32.030Z,4.00
2019-03-20T19:27:01.253Z,3.90
2019-03-20T19:29:30.668Z,4.23
2019-03-20T19:31:59.842Z,4.20
2019-03-20T19:34:28.898Z,4.37
2019-03-20T19:36:58.026Z,4.17
2019-03-20T19:39:27.135Z,4.93
2019-03-20T19:41:56.239Z,5.23
2019-03-20T19:44:25.580Z,4.30
2019-03-20T19:46:54.668Z,5.13
2019-03-20T19:49:26.575Z,4.80
2019-03-20T19:51:55.731Z,4.13
2019-03-20T19:54:24.859Z,4.23
2019-03-20T19:56:54.035Z,4.03
2019-03-20T19:59:23.155Z,3.63
2019-03-20T20:01:52.285Z,3.80
2019-03-20T20:04:21.452Z,4.03
2019-03-20T20:06:51.062Z,3.93
2019-03-20T20:09:20.257Z,3.70
2019-03-20T20:11:49.429Z,3.87
2019-03-20T20:14:18.642Z,4.07
2019-03-20T20:16:47.813Z,3.87
2019-03-20T20:19:17.005Z,4.20
2019-03-20T20:21:46.269Z,4.60
2019-03-20T20:24:15.290Z,4.10
2019-03-20T20:26:44.444Z,5.13
2019-03-20T20:29:13.559Z,4.63
2019-03-20T20:31:42.854Z,4.30
2019-03-20T20:34:12.016Z,4.43
2019-03-20T20:36:41.091Z,5.10
2019-03-20T20:39:10.202Z,4.87
2019-03-20T20:41:39.482Z,5.33
2019-03-20T20:44:08.551Z,5.83
2019-03-20T20:46:37.698Z,5.57
2019-03-20T20:49:06.881Z,6.40
2019-03-20T20:51:35.977Z,5.53
2019-03-20T20:54:05.038Z,5.30
2019-03-20T20:56:34.170Z,5.97
2019-03-20T20:59:03.309Z,5.50
2019-03-20T21:01:32.493Z,6.17
2019-03-20T21:04:01.559Z,4.83
2019-03-20T21:06:30.648Z,5.70
2019-03-20T21:08:59.718Z,4.90
2019-03-20T21:11:28.816Z,5.23
2019-03-20T21:13:57.814Z,5.13
2019-03-20T21:16:27.951Z,5.27
2019-03-20T21:19:33.367Z,5.30
2019-03-20T21:22:44.539Z,5.53
2019-03-20T21:25:15.375Z,5.20
2019-03-20T21:28:31.412Z,4.60
2019-03-20T21:31:33.061Z,5.33
2019-03-20T21:34:31.540Z,5.20
2019-03-20T21:37:45.182Z,5.33
2019-03-20T21:40:16.464Z,5.00
2019-03-20T21:43:21.316Z,4.87
2019-03-20T21:46:32.233Z,4.63
2019-03-20T21:49:01.864Z,4.73
2019-03-20T21:51:31.431Z,5.23
2019-03-20T21:54:42.092Z,5.13
2019-03-20T21:57:47.067Z,5.30
2019-03-20T22:01:15.532Z,5.57
2019-03-20T22:03:45.185Z,5.10
2019-03-20T22:06:51.057Z,4.90
2019-03-20T22:09:48.253Z,4.43
2019-03-20T22:12:35.255Z,4.73
2019-03-20T22:15:15.994Z,4.87
2019-03-20T22:18:26.129Z,5.07
2019-03-20T22:21:18.606Z,5.10
2019-03-20T22:24:15.227Z,5.27
2019-03-20T22:27:23.778Z,5.17
2019-03-20T22:29:53.353Z,9.87
2019-03-20T22:33:11.337Z,8.40
2019-03-20T22:35:59.657Z,8.40
2019-03-20T22:39:25.246Z,7.33
2019-03-20T22:42:25.745Z,7.67
2019-03-20T22:45:04.728Z,7.30
2019-03-20T22:48:03.344Z,9.30
2019-03-20T22:50:52.578Z,6.30
2019-03-20T22:53:47.733Z,5.67
2019-03-20T22:56:53.271Z,5.13
2019-03-20T22:59:22.881Z,7.23
2019-03-20T23:02:05.591Z,10.03
2019-03-20T23:04:38.146Z,7.60
2019-03-20T23:07:10.374Z,7.73
2019-03-20T23:09:39.081Z,6.60
2019-03-20T23:12:11.796Z,7.83
2019-03-20T23:14:41.455Z,6.53
2019-03-20T23:17:11.122Z,7.00
2019-03-20T23:19:41.545Z,7.37
2019-03-20T23:22:11.690Z,6.63
2019-03-20T23:24:41.364Z,5.60
2019-03-20T23:27:14.764Z,5.47
2019-03-20T23:29:44.371Z,5.20
2019-03-20T23:32:14.106Z,5.50
2019-03-20T23:34:43.667Z,6.20
2019-03-20T23:37:13.318Z,6.80
2019-03-20T23:39:42.948Z,7.40
2019-03-20T23:42:12.512Z,7.87
2019-03-20T23:44:42.154Z,7.90
2019-03-20T23:47:11.801Z,7.57
2019-03-20T23:49:41.418Z,7.90
2019-03-20T23:52:11.030Z,8.40
2019-03-20T23:54:49.979Z,7.90
2019-03-20T23:57:20.138Z,8.50
2019-03-20T23:59:50.298Z,7.70
